sensor_id;sensor_type;location;lat;lon;timestamp;pressure;altitude;pressure_sealevel;temperature;humidity
33795;BME280;51430;52.242;21.118;2023-09-12T00:02:08;100042.05;;;20.05;82.35
33795;BME280;51430;52.242;21.118;2023-09-12T00:05:52;100038.11;;;20.04;82.31
33795;BME280;51430;52.242;21.118;2023-09-12T00:09:19;100037.78;;;19.96;82.43
33795;BME280;51430;52.242;21.118;2023-09-12T00:13:09;100038.96;;;19.87;82.59
33795;BME280;51430;52.242;21.118;2023-09-12T00:27:24;100038.12;;;20.00;81.91
33795;BME280;51430;52.242;21.118;2023-09-12T00:30:03;100036.38;;;19.86;82.33
33795;BME280;51430;52.242;21.118;2023-09-12T00:44:10;100036.92;;;19.82;81.46
33795;BME280;51430;52.242;21.118;2023-09-12T00:57:24;100038.05;;;19.55;82.34
33795;BME280;51430;52.242;21.118;2023-09-12T01:00:14;100034.86;;;19.34;83.44
33795;BME280;51430;52.242;21.118;2023-09-12T01:04:21;100028.73;;;19.27;84.21
33795;BME280;51430;52.242;21.118;2023-09-12T01:07:28;100028.53;;;19.06;86.26
33795;BME280;51430;52.242;21.118;2023-09-12T01:16:02;100024.39;;;18.83;88.02
33795;BME280;51430;52.242;21.118;2023-09-12T01:19:38;100029.96;;;18.71;89.16
33795;BME280;51430;52.242;21.118;2023-09-12T01:27:47;100024.92;;;18.63;89.89
33795;BME280;51430;52.242;21.118;2023-09-12T01:58:48;100030.39;;;18.98;87.05
33795;BME280;51430;52.242;21.118;2023-09-12T02:02:46;100030.05;;;18.90;87.58
33795;BME280;51430;52.242;21.118;2023-09-12T02:06:05;100030.27;;;18.81;88.07
33795;BME280;51430;52.242;21.118;2023-09-12T02:08:33;100030.80;;;18.76;88.37
33795;BME280;51430;52.242;21.118;2023-09-12T02:11:01;100032.81;;;18.83;87.87
33795;BME280;51430;52.242;21.118;2023-09-12T02:13:29;100032.55;;;18.86;87.78
33795;BME280;51430;52.242;21.118;2023-09-12T02:16:00;100029.58;;;18.87;87.63
33795;BME280;51430;52.242;21.118;2023-09-12T02:18:31;100028.25;;;18.86;87.48
33795;BME280;51430;52.242;21.118;2023-09-12T02:20:59;100035.36;;;18.87;87.56
33795;BME280;51430;52.242;21.118;2023-09-12T02:23:27;100033.48;;;18.87;87.43
33795;BME280;51430;52.242;21.118;2023-09-12T02:25:55;100035.78;;;18.85;87.57
33795;BME280;51430;52.242;21.118;2023-09-12T02:31:56;100034.91;;;18.70;87.72
33795;BME280;51430;52.242;21.118;2023-09-12T02:35:20;100030.08;;;18.64;88.11
33795;BME280;51430;52.242;21.118;2023-09-12T02:38:55;100030.56;;;18.43;89.09
33795;BME280;51430;52.242;21.118;2023-09-12T02:41:55;100034.30;;;18.31;89.63
33795;BME280;51430;52.242;21.118;2023-09-12T02:45:55;100033.92;;;18.28;90.32
33795;BME280;51430;52.242;21.118;2023-09-12T02:49:30;100032.92;;;18.24;90.36
33795;BME280;51430;52.242;21.118;2023-09-12T02:52:56;100036.60;;;18.20;90.45
33795;BME280;51430;52.242;21.118;2023-09-12T02:56:54;100032.40;;;18.18;90.58
33795;BME280;51430;52.242;21.118;2023-09-12T03:00:07;100029.62;;;18.10;90.63
33795;BME280;51430;52.242;21.118;2023-09-12T03:03:57;100031.55;;;18.05;90.76
33795;BME280;51430;52.242;21.118;2023-09-12T03:06:25;100033.63;;;17.99;91.00
33795;BME280;51430;52.242;21.118;2023-09-12T03:08:54;100030.02;;;18.08;90.99
33795;BME280;51430;52.242;21.118;2023-09-12T03:11:22;100030.80;;;18.15;90.75
33795;BME280;51430;52.242;21.118;2023-09-12T03:13:50;100030.84;;;18.19;90.58
33795;BME280;51430;52.242;21.118;2023-09-12T03:19:12;100029.98;;;18.19;90.12
33795;BME280;51430;52.242;21.118;2023-09-12T03:27:30;100030.13;;;17.87;91.11
33795;BME280;51430;52.242;21.118;2023-09-12T03:31:10;100030.60;;;17.81;91.62
33795;BME280;51430;52.242;21.118;2023-09-12T03:35:03;100036.27;;;17.79;91.71
33795;BME280;51430;52.242;21.118;2023-09-12T03:38:29;100040.58;;;17.74;91.86
33795;BME280;51430;52.242;21.118;2023-09-12T03:42:29;100041.21;;;17.73;92.11
33795;BME280;51430;52.242;21.118;2023-09-12T03:45:49;100038.41;;;17.70;92.38
33795;BME280;51430;52.242;21.118;2023-09-12T03:49:50;100041.94;;;17.73;92.05
33795;BME280;51430;52.242;21.118;2023-09-12T03:53:23;100047.16;;;17.70;92.29
33795;BME280;51430;52.242;21.118;2023-09-12T04:07:06;100042.96;;;17.96;91.41
33795;BME280;51430;52.242;21.118;2023-09-12T04:09:34;100045.15;;;17.96;91.42
33795;BME280;51430;52.242;21.118;2023-09-12T04:12:03;100043.10;;;18.04;91.42
33795;BME280;51430;52.242;21.118;2023-09-12T04:14:31;100046.06;;;18.08;91.18
33795;BME280;51430;52.242;21.118;2023-09-12T04:16:59;100048.81;;;18.09;91.67
33795;BME280;51430;52.242;21.118;2023-09-12T04:21:19;100051.59;;;18.00;93.29
33795;BME280;51430;52.242;21.118;2023-09-12T04:23:47;100049.81;;;17.97;93.91
33795;BME280;51430;52.242;21.118;2023-09-12T04:30:04;100050.16;;;18.20;92.94
33795;BME280;51430;52.242;21.118;2023-09-12T04:38:59;100059.17;;;18.35;93.17
33795;BME280;51430;52.242;21.118;2023-09-12T05:03:05;100062.95;;;18.30;95.86
33795;BME280;51430;52.242;21.118;2023-09-12T05:06:44;100064.12;;;18.29;95.90
33795;BME280;51430;52.242;21.118;2023-09-12T05:10:43;100063.66;;;18.27;96.23
33795;BME280;51430;52.242;21.118;2023-09-12T05:41:04;100081.14;;;18.84;94.37
33795;BME280;51430;52.242;21.118;2023-09-12T05:54:57;100084.63;;;20.02;89.70
33795;BME280;51430;52.242;21.118;2023-09-12T07:49:05;100126.20;;;25.80;64.79
33795;BME280;51430;52.242;21.118;2023-09-12T07:51:33;100132.44;;;26.08;65.08
33795;BME280;51430;52.242;21.118;2023-09-12T07:54:11;100130.46;;;26.59;62.79
33795;BME280;51430;52.242;21.118;2023-09-12T07:56:40;100130.83;;;26.89;58.24
33795;BME280;51430;52.242;21.118;2023-09-12T07:59:09;100131.71;;;27.39;57.58
33795;BME280;51430;52.242;21.118;2023-09-12T08:01:48;100130.95;;;27.89;56.18
33795;BME280;51430;52.242;21.118;2023-09-12T08:05:41;100135.98;;;28.34;53.68
33795;BME280;51430;52.242;21.118;2023-09-12T08:08:59;100137.16;;;28.83;51.69
33795;BME280;51430;52.242;21.118;2023-09-12T08:12:43;100138.05;;;29.33;51.36
33795;BME280;51430;52.242;21.118;2023-09-12T08:15:12;100141.77;;;29.82;50.49
33795;BME280;51430;52.242;21.118;2023-09-12T08:17:41;100144.10;;;30.19;49.17
33795;BME280;51430;52.242;21.118;2023-09-12T08:20:10;100147.23;;;30.38;48.66
33795;BME280;51430;52.242;21.118;2023-09-12T08:22:51;100145.83;;;30.68;48.05
33795;BME280;51430;52.242;21.118;2023-09-12T08:25:23;100142.50;;;30.91;47.05
33795;BME280;51430;52.242;21.118;2023-09-12T08:29:01;100141.11;;;30.75;47.37
33795;BME280;51430;52.242;21.118;2023-09-12T08:32:54;100147.45;;;31.14;47.80
33795;BME280;51430;52.242;21.118;2023-09-12T08:36:12;100146.44;;;31.54;45.86
33795;BME280;51430;52.242;21.118;2023-09-12T08:40:36;100145.95;;;31.97;44.37
33795;BME280;51430;52.242;21.118;2023-09-12T08:43:59;100145.26;;;31.74;44.34
33795;BME280;51430;52.242;21.118;2023-09-12T08:47:42;100153.02;;;32.38;44.53
33795;BME280;51430;52.242;21.118;2023-09-12T08:51:10;100153.25;;;32.93;42.99
33795;BME280;51430;52.242;21.118;2023-09-12T08:55:01;100155.20;;;33.52;41.32
33795;BME280;51430;52.242;21.118;2023-09-12T08:58:24;100152.86;;;33.50;40.68
33795;BME280;51430;52.242;21.118;2023-09-12T09:02:04;100158.05;;;33.88;41.31
33795;BME280;51430;52.242;21.118;2023-09-12T09:05:51;100156.77;;;34.29;39.82
33795;BME280;51430;52.242;21.118;2023-09-12T09:19:45;100153.92;;;34.72;39.45
33795;BME280;51430;52.242;21.118;2023-09-12T09:22:34;100149.16;;;35.18;38.88
33795;BME280;51430;52.242;21.118;2023-09-12T09:26:46;100150.45;;;35.86;38.51
33795;BME280;51430;52.242;21.118;2023-09-12T09:29:47;100150.35;;;36.24;37.46
33795;BME280;51430;52.242;21.118;2023-09-12T09:33:24;100150.91;;;36.74;36.91
33795;BME280;51430;52.242;21.118;2023-09-12T09:37:02;100153.43;;;36.63;35.17
33795;BME280;51430;52.242;21.118;2023-09-12T09:40:58;100153.75;;;36.73;36.21
33795;BME280;51430;52.242;21.118;2023-09-12T09:44:15;100152.84;;;35.85;34.85
33795;BME280;51430;52.242;21.118;2023-09-12T09:48:28;100147.02;;;35.50;34.99
33795;BME280;51430;52.242;21.118;2023-09-12T09:51:30;100144.85;;;35.20;36.01
33795;BME280;51430;52.242;21.118;2023-09-12T09:55:35;100147.26;;;36.24;35.92
33795;BME280;51430;52.242;21.118;2023-09-12T09:59:22;100149.60;;;36.74;34.47
33795;BME280;51430;52.242;21.118;2023-09-12T10:01:56;100150.89;;;36.97;33.20
33795;BME280;51430;52.242;21.118;2023-09-12T10:04:27;100149.73;;;36.62;32.58
33795;BME280;51430;52.242;21.118;2023-09-12T10:06:57;100148.23;;;37.00;32.90
33795;BME280;51430;52.242;21.118;2023-09-12T10:09:32;100148.27;;;36.62;32.15
33795;BME280;51430;52.242;21.118;2023-09-12T10:25:02;100144.33;;;36.72;31.57
33795;BME280;51430;52.242;21.118;2023-09-12T10:27:52;100138.12;;;36.89;31.31
33795;BME280;51430;52.242;21.118;2023-09-12T10:31:34;100136.10;;;36.44;31.32
33795;BME280;51430;52.242;21.118;2023-09-12T10:35:27;100135.00;;;37.11;31.09
33795;BME280;51430;52.242;21.118;2023-09-12T10:37:59;100138.86;;;37.55;31.00
33795;BME280;51430;52.242;21.118;2023-09-12T10:40:29;100143.23;;;37.98;29.47
33795;BME280;51430;52.242;21.118;2023-09-12T10:43:10;100140.00;;;37.63;28.48
33795;BME280;51430;52.242;21.118;2023-09-12T10:45:37;100141.95;;;37.77;29.26
33795;BME280;51430;52.242;21.118;2023-09-12T10:48:09;100137.52;;;38.07;28.46
33795;BME280;51430;52.242;21.118;2023-09-12T10:50:38;100136.52;;;38.32;28.09
33795;BME280;51430;52.242;21.118;2023-09-12T10:53:12;100134.72;;;38.01;26.86
33795;BME280;51430;52.242;21.118;2023-09-12T10:55:42;100133.64;;;38.16;27.13
33795;BME280;51430;52.242;21.118;2023-09-12T10:59:12;100132.50;;;38.55;27.48
33795;BME280;51430;52.242;21.118;2023-09-12T11:02:48;100129.59;;;39.20;26.76
33795;BME280;51430;52.242;21.118;2023-09-12T11:07:29;100128.34;;;39.97;26.48
33795;BME280;51430;52.242;21.118;2023-09-12T11:20:59;100130.36;;;39.96;24.87
33795;BME280;51430;52.242;21.118;2023-09-12T12:05:26;100114.95;;;41.34;24.62
33795;BME280;51430;52.242;21.118;2023-09-12T12:08:25;100113.85;;;41.81;25.05
33795;BME280;51430;52.242;21.118;2023-09-12T12:12:27;100114.67;;;42.20;23.97
33795;BME280;51430;52.242;21.118;2023-09-12T12:15:56;100114.83;;;41.57;24.48
33795;BME280;51430;52.242;21.118;2023-09-12T12:19:33;100111.23;;;41.34;24.93
33795;BME280;51430;52.242;21.118;2023-09-12T12:25:19;100109.48;;;41.18;24.72
33795;BME280;51430;52.242;21.118;2023-09-12T12:35:32;100100.20;;;40.81;25.83
33795;BME280;51430;52.242;21.118;2023-09-12T12:38:46;100101.13;;;41.65;24.88
33795;BME280;51430;52.242;21.118;2023-09-12T12:53:07;100091.88;;;38.20;27.58
33795;BME280;51430;52.242;21.118;2023-09-12T13:01:22;100089.63;;;38.57;27.86
33795;BME280;51430;52.242;21.118;2023-09-12T13:05:06;100083.11;;;40.18;26.27
33795;BME280;51430;52.242;21.118;2023-09-12T13:08:32;100086.16;;;40.99;25.30
33795;BME280;51430;52.242;21.118;2023-09-12T13:12:16;100085.42;;;41.49;24.91
33795;BME280;51430;52.242;21.118;2023-09-12T13:14:48;100085.33;;;40.98;25.12
33795;BME280;51430;52.242;21.118;2023-09-12T13:17:34;100079.50;;;40.03;25.87
33795;BME280;51430;52.242;21.118;2023-09-12T13:20:02;100079.86;;;39.38;27.76
33795;BME280;51430;52.242;21.118;2023-09-12T13:22:38;100075.23;;;39.87;26.33
33795;BME280;51430;52.242;21.118;2023-09-12T13:25:11;100079.01;;;40.87;25.46
33795;BME280;51430;52.242;21.118;2023-09-12T13:27:39;100082.04;;;41.65;24.41
33795;BME280;51430;52.242;21.118;2023-09-12T13:30:09;100083.91;;;42.21;23.90
33795;BME280;51430;52.242;21.118;2023-09-12T13:32:41;100085.05;;;42.73;23.84
33795;BME280;51430;52.242;21.118;2023-09-12T13:35:11;100080.02;;;42.50;23.66
33795;BME280;51430;52.242;21.118;2023-09-12T13:37:57;100082.59;;;42.58;23.60
33795;BME280;51430;52.242;21.118;2023-09-12T13:40:50;100079.12;;;42.75;23.50
33795;BME280;51430;52.242;21.118;2023-09-12T13:46:46;100078.05;;;42.60;23.93
33795;BME280;51430;52.242;21.118;2023-09-12T13:50:29;100076.43;;;41.19;24.86
33795;BME280;51430;52.242;21.118;2023-09-12T14:33:01;100065.64;;;38.97;27.09
33795;BME280;51430;52.242;21.118;2023-09-12T14:35:32;100067.95;;;38.21;28.12
33795;BME280;51430;52.242;21.118;2023-09-12T14:38:00;100067.80;;;38.20;28.44
33795;BME280;51430;52.242;21.118;2023-09-12T14:40:39;100067.21;;;38.17;28.48
33795;BME280;51430;52.242;21.118;2023-09-12T14:43:30;100068.01;;;38.66;27.35
33795;BME280;51430;52.242;21.118;2023-09-12T14:45:56;100071.84;;;38.25;28.01
33795;BME280;51430;52.242;21.118;2023-09-12T14:48:26;100069.62;;;37.13;28.54
33795;BME280;51430;52.242;21.118;2023-09-12T14:50:53;100066.22;;;36.09;30.08
33795;BME280;51430;52.242;21.118;2023-09-12T14:53:20;100062.63;;;35.47;31.44
33795;BME280;51430;52.242;21.118;2023-09-12T14:59:18;100060.69;;;34.64;32.74
33795;BME280;51430;52.242;21.118;2023-09-12T15:02:25;100064.92;;;35.64;32.03
33795;BME280;51430;52.242;21.118;2023-09-12T15:05:38;100066.30;;;36.65;30.99
33795;BME280;51430;52.242;21.118;2023-09-12T15:08:53;100069.20;;;36.87;30.08
33795;BME280;51430;52.242;21.118;2023-09-12T15:11:22;100061.92;;;35.34;31.55
33795;BME280;51430;52.242;21.118;2023-09-12T15:16:56;100060.24;;;33.68;34.34
33795;BME280;51430;52.242;21.118;2023-09-12T15:19:44;100054.81;;;33.40;34.68
33795;BME280;51430;52.242;21.118;2023-09-12T15:48:41;100038.77;;;30.94;39.49
33795;BME280;51430;52.242;21.118;2023-09-12T20:31:12;100049.78;;;22.64;72.10
33795;BME280;51430;52.242;21.118;2023-09-12T22:39:00;100051.25;;;20.88;76.88
